Terminal Aerodrome Forecast
Issued by NWS

Home | Current Version | Previous Version | Text Only | Print | Product List | Glossary On
Versions: 1 2 3 4 5 6 7 8 9 10 11 12 13
000
FTAK31 PAFA 181935 AAA
TAFAUN
TAF AMD
PAUN 181935Z 1820/1918 09015KT P6SM SCT060
     FM190000 06010KT P6SM SCT050 BKN100
     FM190500 09009KT P6SM BKN030=

USA.gov is the U.S. government's official web portal to all federal, state and local government web resources and services.